Time,TemperatureF,DewpointF,PressureIn,WindDirection,WindDirectionDegrees,WindSpeedMPH,WindSpeedGustMPH,Humidity,HourlyPrecipIn,Conditions,Clouds,dailyrainin,SoftwareType,DateUTC
2013-10-14 00:04:00,66.8,64.0,30.04,NNW,344,0.0,0.0,89,0.00,,,0.00,weatherlink.com 1.10,2013-10-14 04:04:00,
2013-10-14 00:19:00,66.0,63.0,30.04,NNW,344,0.0,0.0,91,0.00,,,0.00,weatherlink.com 1.10,2013-10-14 04:19:00,
2013-10-14 00:34:00,65.6,64.0,30.04,NNW,344,0.0,0.0,93,0.00,,,0.00,weatherlink.com 1.10,2013-10-14 04:34:00,
2013-10-14 00:49:00,65.3,64.0,30.04,NNW,344,0.0,0.0,94,0.00,,,0.00,weatherlink.com 1.10,2013-10-14 04:49:00,
2013-10-14 01:04:00,65.5,64.0,30.03,NNW,344,0.0,0.0,94,0.00,,,0.00,weatherlink.com 1.10,2013-10-14 05:04:00,
2013-10-14 01:19:00,65.3,64.0,30.03,NNW,345,0.0,0.0,94,0.00,,,0.00,weatherlink.com 1.10,2013-10-14 05:19:00,
2013-10-14 01:34:00,65.1,64.0,30.02,NNW,344,0.0,0.0,95,0.00,,,0.00,weatherlink.com 1.10,2013-10-14 05:34:00,
2013-10-14 01:49:00,65.2,64.0,30.02,NNW,344,0.0,1.0,96,0.00,,,0.00,weatherlink.com 1.10,2013-10-14 05:49:00,
2013-10-14 02:04:00,65.0,64.0,30.02,NNW,344,0.0,0.0,95,0.00,,,0.00,weatherlink.com 1.10,2013-10-14 06:04:00,
2013-10-14 02:19:00,64.6,64.0,30.02,NNW,344,0.0,0.0,96,0.00,,,0.00,weatherlink.com 1.10,2013-10-14 06:19:00,
2013-10-14 02:34:00,64.8,64.0,30.02,NNW,345,0.0,0.0,96,0.00,,,0.00,weatherlink.com 1.10,2013-10-14 06:34:00,
2013-10-14 02:49:00,64.7,63.0,30.01,NNW,344,0.0,0.0,95,0.00,,,0.00,weatherlink.com 1.10,2013-10-14 06:49:00,
2013-10-14 03:04:00,64.2,63.0,30.01,NNW,344,0.0,0.0,95,0.00,,,0.00,weatherlink.com 1.10,2013-10-14 07:04:00,
2013-10-14 03:19:00,64.1,63.0,30.01,NNW,344,0.0,0.0,97,0.00,,,0.00,weatherlink.com 1.10,2013-10-14 07:19:00,
2013-10-14 03:34:00,64.5,64.0,30.01,NNW,344,0.0,0.0,97,0.00,,,0.00,weatherlink.com 1.10,2013-10-14 07:34:00,
2013-10-14 03:49:00,64.4,63.0,30.01,NNW,344,0.0,0.0,96,0.00,,,0.00,weatherlink.com 1.10,2013-10-14 07:49:00,
2013-10-14 04:04:00,64.2,63.0,30.01,NNW,344,0.0,0.0,96,0.00,,,0.00,weatherlink.com 1.10,2013-10-14 08:04:00,
2013-10-14 04:19:00,64.2,63.0,30.00,NNW,343,0.0,1.0,97,0.00,,,0.00,weatherlink.com 1.10,2013-10-14 08:19:00,
2013-10-14 04:34:00,65.0,64.0,30.00,NNW,336,0.0,2.0,97,0.00,,,0.00,weatherlink.com 1.10,2013-10-14 08:34:00,
2013-10-14 04:49:00,65.9,65.0,30.00,NNW,343,0.0,3.0,96,0.00,,,0.00,weatherlink.com 1.10,2013-10-14 08:49:00,
2013-10-14 05:04:00,66.1,65.0,30.00,NNW,343,0.0,2.0,95,0.00,,,0.00,weatherlink.com 1.10,2013-10-14 09:04:00,
2013-10-14 05:19:00,66.3,65.0,30.00,North,358,1.0,4.0,96,0.00,,,0.00,weatherlink.com 1.10,2013-10-14 09:19:00,
2013-10-14 05:34:00,66.4,65.0,30.00,NNW,348,0.0,2.0,96,0.00,,,0.00,weatherlink.com 1.10,2013-10-14 09:34:00,
2013-10-14 05:49:00,66.0,65.0,30.00,NNW,348,0.0,1.0,96,0.00,,,0.00,weatherlink.com 1.10,2013-10-14 09:49:00,
2013-10-14 06:04:00,65.9,65.0,30.00,NNW,348,1.0,2.0,97,0.00,,,0.00,weatherlink.com 1.10,2013-10-14 10:04:00,
2013-10-14 06:19:00,65.8,65.0,30.00,NNW,348,0.0,1.0,97,0.00,,,0.00,weatherlink.com 1.10,2013-10-14 10:19:00,
2013-10-14 06:34:00,65.7,65.0,30.00,NNW,348,0.0,1.0,97,0.00,,,0.00,weatherlink.com 1.10,2013-10-14 10:34:00,
2013-10-14 06:49:00,66.0,66.0,30.00,North,351,2.0,3.0,98,0.00,,,0.00,weatherlink.com 1.10,2013-10-14 10:49:00,
2013-10-14 07:04:00,66.0,66.0,30.00,NNW,333,0.0,2.0,98,0.00,,,0.00,weatherlink.com 1.10,2013-10-14 11:04:00,
2013-10-14 07:19:00,66.0,65.0,30.00,NNW,334,0.0,2.0,97,0.00,,,0.00,weatherlink.com 1.10,2013-10-14 11:19:00,
2013-10-14 07:34:00,66.1,66.0,30.01,NNW,343,1.0,3.0,98,0.00,,,0.00,weatherlink.com 1.10,2013-10-14 11:34:00,
2013-10-14 07:49:00,66.7,66.0,30.01,NW,326,2.0,4.0,97,0.00,,,0.00,weatherlink.com 1.10,2013-10-14 11:49:00,
2013-10-14 08:04:00,67.5,67.0,30.01,North,351,1.0,3.0,97,0.00,,,0.00,weatherlink.com 1.10,2013-10-14 12:04:00,
2013-10-14 08:19:00,68.6,67.0,30.02,NNW,346,1.0,4.0,95,0.00,,,0.00,weatherlink.com 1.10,2013-10-14 12:19:00,
2013-10-14 08:34:00,69.9,68.0,30.02,NNW,333,2.0,4.0,93,0.00,,,0.00,weatherlink.com 1.10,2013-10-14 12:34:00,
2013-10-14 08:49:00,70.9,68.0,30.03,NNW,337,3.0,7.0,91,0.00,,,0.00,weatherlink.com 1.10,2013-10-14 12:49:00,
2013-10-14 09:04:00,71.9,69.0,30.03,NNW,342,3.0,7.0,89,0.00,,,0.00,weatherlink.com 1.10,2013-10-14 13:04:00,
2013-10-14 09:19:00,72.7,69.0,30.03,NNW,346,2.0,11.0,87,0.00,,,0.00,weatherlink.com 1.10,2013-10-14 13:19:00,
2013-10-14 09:34:00,73.6,69.0,30.03,NE,38,6.0,11.0,85,0.00,,,0.00,weatherlink.com 1.10,2013-10-14 13:34:00,
2013-10-14 09:49:00,74.4,69.0,30.04,North,358,5.0,8.0,84,0.00,,,0.00,weatherlink.com 1.10,2013-10-14 13:49:00,
2013-10-14 10:04:00,75.2,69.0,30.04,North,4,4.0,9.0,82,0.00,,,0.00,weatherlink.com 1.10,2013-10-14 14:04:00,
2013-10-14 10:19:00,76.2,70.0,30.04,NNW,348,4.0,9.0,81,0.00,,,0.00,weatherlink.com 1.10,2013-10-14 14:19:00,
2013-10-14 10:34:00,76.8,70.0,30.04,NE,39,5.0,8.0,80,0.00,,,0.00,weatherlink.com 1.10,2013-10-14 14:34:00,
2013-10-14 10:49:00,77.6,71.0,30.04,North,355,4.0,7.0,79,0.00,,,0.00,weatherlink.com 1.10,2013-10-14 14:49:00,
2013-10-14 11:05:00,78.5,71.0,30.03,NNE,24,2.0,5.0,77,0.00,,,0.00,weatherlink.com 1.10,2013-10-14 15:05:00,
2013-10-14 11:20:00,79.1,71.0,30.03,NW,324,5.0,7.0,75,0.00,,,0.00,weatherlink.com 1.10,2013-10-14 15:20:00,
2013-10-14 11:35:00,80.1,69.0,30.03,NNW,339,2.0,7.0,69,0.00,,,0.00,weatherlink.com 1.10,2013-10-14 15:35:00,
2013-10-14 11:50:00,80.1,69.0,30.02,NNW,332,1.0,7.0,68,0.00,,,0.00,weatherlink.com 1.10,2013-10-14 15:50:00,
2013-10-14 12:05:00,80.6,69.0,30.02,NNE,26,4.0,6.0,68,0.00,,,0.00,weatherlink.com 1.10,2013-10-14 16:05:00,
2013-10-14 12:20:00,81.6,69.0,30.01,NNE,18,5.0,8.0,65,0.00,,,0.00,weatherlink.com 1.10,2013-10-14 16:20:00,
2013-10-14 12:35:00,81.7,68.0,30.01,North,2,6.0,9.0,63,0.00,,,0.00,weatherlink.com 1.10,2013-10-14 16:35:00,
2013-10-14 12:50:00,82.4,68.0,30.00,NNE,24,3.0,7.0,62,0.00,,,0.00,weatherlink.com 1.10,2013-10-14 16:50:00,
2013-10-14 13:05:00,82.6,68.0,29.99,NNW,341,2.0,10.0,61,0.00,,,0.00,weatherlink.com 1.10,2013-10-14 17:05:00,
2013-10-14 13:20:00,82.3,67.0,29.99,NNW,336,2.0,8.0,60,0.00,,,0.00,weatherlink.com 1.10,2013-10-14 17:20:00,
2013-10-14 13:35:00,81.8,66.0,29.98,NNW,336,2.0,8.0,59,0.00,,,0.00,weatherlink.com 1.10,2013-10-14 17:35:00,
2013-10-14 13:50:00,83.6,67.0,29.98,North,11,7.0,8.0,58,0.00,,,0.00,weatherlink.com 1.10,2013-10-14 17:50:00,
2013-10-14 14:05:00,83.5,67.0,29.97,North,1,1.0,7.0,58,0.00,,,0.00,weatherlink.com 1.10,2013-10-14 18:05:00,
2013-10-14 14:20:00,82.6,66.0,29.96,North,9,4.0,7.0,57,0.00,,,0.00,weatherlink.com 1.10,2013-10-14 18:20:00,
2013-10-14 14:35:00,83.0,66.0,29.95,NE,35,1.0,6.0,56,0.00,,,0.00,weatherlink.com 1.10,2013-10-14 18:35:00,
2013-10-14 14:50:00,82.9,64.0,29.95,NE,38,6.0,7.0,53,0.00,,,0.00,weatherlink.com 1.10,2013-10-14 18:50:00,
2013-10-14 15:05:00,84.7,65.0,29.94,NNE,19,6.0,12.0,51,0.00,,,0.00,weatherlink.com 1.10,2013-10-14 19:05:00,
2013-10-14 15:20:00,83.8,66.0,29.94,NNE,12,3.0,6.0,55,0.00,,,0.00,weatherlink.com 1.10,2013-10-14 19:20:00,
2013-10-14 15:35:00,84.7,66.0,29.93,North,11,3.0,10.0,53,0.00,,,0.00,weatherlink.com 1.10,2013-10-14 19:35:00,
2013-10-14 15:50:00,84.2,65.0,29.93,NNE,12,6.0,8.0,53,0.00,,,0.00,weatherlink.com 1.10,2013-10-14 19:50:00,
2013-10-14 16:05:00,85.0,65.0,29.92,WNW,302,4.0,7.0,51,0.00,,,0.00,weatherlink.com 1.10,2013-10-14 20:05:00,
2013-10-14 16:20:00,85.1,66.0,29.92,North,5,2.0,8.0,53,0.00,,,0.00,weatherlink.com 1.10,2013-10-14 20:20:00,
2013-10-14 16:35:00,84.6,64.0,29.92,NE,43,6.0,6.0,51,0.00,,,0.00,weatherlink.com 1.10,2013-10-14 20:35:00,
2013-10-14 16:50:00,83.8,65.0,29.92,NNE,17,6.0,10.0,53,0.00,,,0.00,weatherlink.com 1.10,2013-10-14 20:50:00,
2013-10-14 17:05:00,84.6,63.0,29.92,NNW,348,4.0,7.0,49,0.00,,,0.00,weatherlink.com 1.10,2013-10-14 21:05:00,
2013-10-14 17:20:00,84.0,65.0,29.92,NNW,329,2.0,5.0,53,0.00,,,0.00,weatherlink.com 1.10,2013-10-14 21:20:00,
2013-10-14 17:35:00,83.7,64.0,29.93,NNW,341,4.0,9.0,51,0.00,,,0.00,weatherlink.com 1.10,2013-10-14 21:35:00,
2013-10-14 17:50:00,83.1,64.0,29.93,North,354,5.0,6.0,53,0.00,,,0.00,weatherlink.com 1.10,2013-10-14 21:50:00,
2013-10-14 18:05:00,82.5,64.0,29.93,North,7,5.0,7.0,53,0.00,,,0.00,weatherlink.com 1.10,2013-10-14 22:05:00,
2013-10-14 18:20:00,82.0,64.0,29.94,NNW,332,3.0,6.0,54,0.00,,,0.00,weatherlink.com 1.10,2013-10-14 22:20:00,
2013-10-14 18:35:00,81.8,65.0,29.94,NNW,332,1.0,4.0,56,0.00,,,0.00,weatherlink.com 1.10,2013-10-14 22:35:00,
2013-10-14 18:50:00,80.6,64.0,29.95,NNW,336,2.0,5.0,58,0.00,,,0.00,weatherlink.com 1.10,2013-10-14 22:50:00,
2013-10-14 19:05:00,79.6,64.0,29.95,NW,320,1.0,3.0,60,0.00,,,0.00,weatherlink.com 1.10,2013-10-14 23:05:00,
2013-10-14 19:21:00,78.6,65.0,29.95,NNW,333,1.0,3.0,63,0.00,,,0.00,weatherlink.com 1.10,2013-10-14 23:21:00,
2013-10-14 19:36:00,77.7,65.0,29.95,NW,324,0.0,2.0,65,0.00,,,0.00,weatherlink.com 1.10,2013-10-14 23:36:00,
2013-10-14 19:51:00,76.5,65.0,29.95,NW,324,1.0,2.0,68,0.00,,,0.00,weatherlink.com 1.10,2013-10-14 23:51:00,
2013-10-14 20:06:00,76.0,66.0,29.95,NW,324,0.0,2.0,70,0.00,,,0.00,weatherlink.com 1.10,2013-10-15 00:06:00,
2013-10-14 20:21:00,75.6,66.0,29.96,North,2,4.0,6.0,72,0.00,,,0.00,weatherlink.com 1.10,2013-10-15 00:21:00,
2013-10-14 20:36:00,75.5,67.0,29.97,NNE,31,9.0,10.0,74,0.00,,,0.00,weatherlink.com 1.10,2013-10-15 00:36:00,
2013-10-14 20:51:00,75.0,67.0,29.97,North,360,4.0,10.0,76,0.00,,,0.00,weatherlink.com 1.10,2013-10-15 00:51:00,
2013-10-14 21:06:00,74.4,67.0,29.98,NNE,31,9.0,9.0,78,0.00,,,0.00,weatherlink.com 1.10,2013-10-15 01:06:00,
2013-10-14 21:21:00,73.9,67.0,29.98,North,7,3.0,9.0,80,0.00,,,0.00,weatherlink.com 1.10,2013-10-15 01:21:00,
2013-10-14 21:36:00,73.3,67.0,29.99,NNE,32,5.0,6.0,81,0.00,,,0.00,weatherlink.com 1.10,2013-10-15 01:36:00,
2013-10-14 21:51:00,72.8,67.0,29.99,North,11,3.0,6.0,82,0.00,,,0.00,weatherlink.com 1.10,2013-10-15 01:51:00,
2013-10-14 22:06:00,72.4,67.0,29.99,NNW,348,2.0,5.0,84,0.00,,,0.00,weatherlink.com 1.10,2013-10-15 02:06:00,
2013-10-14 22:21:00,72.0,67.0,29.99,NNW,346,2.0,6.0,85,0.00,,,0.00,weatherlink.com 1.10,2013-10-15 02:21:00,
2013-10-14 22:36:00,71.7,67.0,30.00,NNW,333,2.0,6.0,86,0.00,,,0.00,weatherlink.com 1.10,2013-10-15 02:36:00,
2013-10-14 22:51:00,71.3,67.0,30.00,North,8,1.0,4.0,87,0.00,,,0.00,weatherlink.com 1.10,2013-10-15 02:51:00,
2013-10-14 23:06:00,71.0,67.0,30.00,NNW,333,2.0,5.0,88,0.00,,,0.00,weatherlink.com 1.10,2013-10-15 03:06:00,
2013-10-14 23:21:00,70.7,67.0,30.00,North,360,3.0,5.0,89,0.00,,,0.00,weatherlink.com 1.10,2013-10-15 03:21:00,
2013-10-14 23:36:00,70.3,67.0,30.00,North,351,1.0,4.0,89,0.00,,,0.00,weatherlink.com 1.10,2013-10-15 03:36:00,
2013-10-14 23:51:00,70.1,67.0,30.00,NNW,339,1.0,4.0,90,0.00,,,0.00,weatherlink.com 1.10,2013-10-15 03:51:00,